Data for 01/28/2017

Time Sea-Level Adjusted Pressure Absolute Pressure Temperature Relative Humidity Dew Point   
(mb) (inHg) (mb) (inHg) (C) (F) (%) (C) (F)
00:05 1032 30.47 861 25.43 -5.9 21.5 54 -13.7 7.4
00:10 1032 30.47 861 25.43 -5.4 22.3 54 -13.4 7.8
00:15 1032 30.47 861 25.43 -5.7 21.8 55 -13.3 8
00:20 1032 30.47 862 25.45 -5.8 21.5 55 -13.5 7.7
00:25 1032 30.47 862 25.45 -6 21.1 57 -13.2 8.2
00:30 1032 30.47 862 25.45 -6.1 21 56 -13.6 7.5
00:35 1032 30.47 862 25.45 -6 21.2 56 -13.5 7.7
00:40 1033 30.5 862 25.45 -5.9 21.4 55 -13.6 7.5
00:45 1033 30.5 862 25.45 -5.7 21.7 55 -13.3 8.1
00:50 1033 30.5 862 25.45 -5.7 21.7 56 -13.3 8.1
00:55 1033 30.5 862 25.45 -5.9 21.3 55 -13.5 7.7
01:00 1033 30.5 862 25.45 -5.8 21.5 55 -13.4 7.8
01:05 1033 30.5 862 25.45 -5.9 21.5 56 -13.3 8.1
01:10 1033 30.5 862 25.45 -5.9 21.3 56 -13.4 7.9
01:15 1033 30.5 862 25.45 -5.8 21.6 56 -13.3 8.1
01:20 1033 30.5 862 25.45 -6 21.2 58 -13.1 8.4
01:25 1033 30.5 862 25.45 -6.1 21 57 -13.2 8.2
01:30 1033 30.5 862 25.45 -6 21.1 57 -13.3 8
01:35 1033 30.5 862 25.45 -5.9 21.4 57 -13.1 8.5
01:40 1033 30.5 862 25.45 -6.2 20.9 59 -13 8.7
01:45 1033 30.5 862 25.45 -6.4 20.6 59 -13.2 8.3
01:50 1033 30.5 862 25.45 -6.3 20.7 59 -13 8.7
01:55 1033 30.5 862 25.45 -6.1 21 57 -13.3 8.1
02:00 1033 30.5 862 25.45 -5.7 21.8 57 -12.8 8.9
02:05 1033 30.5 862 25.45 -6 21.2 58 -13.1 8.5
02:10 1033 30.5 862 25.45 -5.8 21.6 58 -12.7 9.1
02:15 1033 30.5 862 25.45 -6 21.1 60 -12.5 9.5
02:20 1033 30.5 862 25.45 -6.1 21.1 61 -12.5 9.5
02:25 1033 30.5 862 25.45 -6.1 21 59 -12.8 9
02:30 1033 30.5 862 25.45 -5.6 21.9 55 -13.3 8.1
02:35 1033 30.5 862 25.45 -4.4 24 53 -12.6 9.2
02:40 1033 30.5 862 25.45 -3.9 25 50 -12.9 8.8
02:45 1032 30.47 862 25.45 -3.4 25.9 50 -12.5 9.6
02:50 1032 30.47 861 25.43 -3.7 25.4 50 -12.8 9
02:55 1032 30.47 861 25.43 -4 24.8 52 -12.5 9.4
03:00 1032 30.47 862 25.45 -3.8 25.1 50 -12.8 8.9
03:05 1032 30.47 862 25.45 -3.6 25.6 49 -12.7 9.1
03:10 1032 30.47 862 25.45 -4 24.8 53 -12.3 9.8
03:15 1032 30.47 862 25.45 -4.3 24.2 50 -13.2 8.3
03:20 1032 30.47 862 25.45 -3.9 24.9 50 -12.9 8.9
03:25 1032 30.47 862 25.45 -3.7 25.3 49 -13.1 8.5
03:30 1033 30.5 862 25.45 -3.4 25.9 48 -12.9 8.8
03:35 1033 30.5 862 25.45 -3.7 25.4 50 -12.6 9.3
03:40 1032 30.47 862 25.45 -4 24.9 50 -12.9 8.7
03:45 1033 30.5 862 25.45 -3.9 24.9 51 -12.5 9.4
03:50 1033 30.5 862 25.45 -4.2 24.4 52 -12.7 9.2
03:55 1033 30.5 862 25.45 -4.3 24.3 51 -13 8.7
04:00 1033 30.5 862 25.45 -4 24.8 49 -13.3 8
04:05 1033 30.5 862 25.45 -3.6 25.5 49 -12.9 8.8
04:10 1033 30.5 862 25.45 -4.2 24.5 51 -12.8 8.9
04:15 1033 30.5 862 25.45 -4.5 24 52 -13 8.6
04:20 1033 30.5 862 25.45 -4.7 23.6 54 -12.6 9.3
04:25 1033 30.5 862 25.45 -5.3 22.5 57 -12.5 9.5
04:30 1033 30.5 862 25.45 -5.9 21.4 58 -12.9 8.7
04:35 1033 30.5 862 25.45 -6.2 20.8 60 -12.9 8.9
04:40 1033 30.5 862 25.45 -6.6 20.1 61 -13 8.5
04:45 1033 30.5 862 25.45 -6.9 19.6 61 -13.2 8.3
04:50 1033 30.5 862 25.45 -7.1 19.2 62 -13.3 8.1
04:55 1033 30.5 862 25.45 -7.7 18.2 64 -13.3 8.1
05:00 1033 30.5 862 25.45 -8.1 17.5 66 -13.3 8
05:05 1033 30.5 862 25.45 -8.1 17.3 66 -13.4 7.9
05:10 1033 30.5 862 25.45 -8.3 17.2 66 -13.5 7.8
05:15 1033 30.5 862 25.45 -7.8 18 63 -13.6 7.6
05:20 1033 30.5 862 25.45 -7.5 18.5 64 -13.2 8.3
05:25 1032 30.47 862 25.45 -8.2 17.3 67 -13.2 8.2
05:30 1032 30.47 862 25.45 -8.6 16.6 70 -13.2 8.3
05:35 1032 30.47 862 25.45 -9.4 15.2 71 -13.7 7.4
05:40 1032 30.47 862 25.45 -9.5 14.9 69 -14.2 6.5
05:45 1032 30.47 862 25.45 -9.2 15.5 68 -14.1 6.7
05:50 1032 30.47 862 25.45 -9 15.7 67 -14 6.7
05:55 1032 30.47 862 25.45 -8.8 16.1 66 -14.1 6.6
06:00 1032 30.47 862 25.45 -8.8 16.2 67 -13.8 7.1
06:05 1032 30.47 862 25.45 -8.9 16.1 67 -14 6.9
06:10 1032 30.47 861 25.43 -8.8 16.2 66 -14.1 6.6
06:15 1032 30.47 862 25.45 -8.6 16.5 65 -14 6.7
06:20 1032 30.47 862 25.45 -8.7 16.4 66 -14 6.8
06:25 1032 30.47 861 25.43 -8.5 16.6 65 -13.9 7
06:30 1032 30.47 861 25.43 -8.4 16.9 64 -14 6.9
06:35 1032 30.47 861 25.43 -8.2 17.2 64 -13.8 7.2
06:40 1032 30.47 861 25.43 -8.3 17.1 65 -13.8 7.1
06:45 1032 30.47 861 25.43 -8.1 17.5 62 -14 6.7
06:50 1032 30.47 861 25.43 -7.5 18.5 61 -13.9 7
06:55 1032 30.47 861 25.43 -7.5 18.5 62 -13.6 7.5
07:00 1032 30.47 861 25.43 -7.6 18.3 62 -13.7 7.3
07:05 1032 30.47 861 25.43 -7.8 18 62 -13.8 7.1
07:10 1032 30.47 861 25.43 -8.1 17.5 64 -13.7 7.4
07:15 1032 30.47 861 25.43 -7.8 17.9 62 -13.9 7
07:20 1032 30.47 861 25.43 -7.5 18.5 60 -13.9 6.9
07:25 1032 30.47 861 25.43 -7.7 18.1 62 -13.8 7.2
07:30 1032 30.47 861 25.43 -7.3 18.9 58 -14.2 6.4
07:35 1032 30.47 861 25.43 -7 19.3 58 -13.9 7
07:40 1032 30.47 861 25.43 -6.5 20.3 55 -14.1 6.7
07:45 1032 30.47 861 25.43 -6.4 20.6 57 -13.6 7.5
07:50 1032 30.47 861 25.43 -6.6 20.1 57 -13.7 7.3
07:55 1032 30.47 861 25.43 -6.4 20.5 56 -13.7 7.3
08:00 1032 30.47 861 25.43 -6.5 20.2 58 -13.6 7.6
08:05 1032 30.47 861 25.43 -6.7 20 59 -13.5 7.7
08:10 1032 30.47 861 25.43 -6.9 19.6 58 -13.7 7.3
08:15 1032 30.47 861 25.43 -7.1 19.3 60 -13.6 7.5
08:20 1032 30.47 861 25.43 -7.3 19 60 -13.7 7.3
08:25 1032 30.47 861 25.43 -7.3 18.9 60 -13.8 7.1
08:30 1032 30.47 861 25.43 -6.5 20.3 58 -13.5 7.6
08:35 1032 30.47 861 25.43 -6.1 21.1 56 -13.5 7.7
08:40 1032 30.47 861 25.43 -6 21.1 59 -12.9 8.8
08:45 1032 30.47 861 25.43 -6.1 21.1 59 -12.9 8.8
08:50 1032 30.47 862 25.45 -6 21.2 59 -12.9 8.9
08:55 1032 30.47 861 25.43 -6 21.3 59 -12.7 9.1
09:00 1032 30.47 862 25.45 -6 21.2 60 -12.6 9.3
09:05 1032 30.47 862 25.45 -5.8 21.6 59 -12.5 9.5
09:10 1032 30.47 862 25.45 -5.5 22 58 -12.5 9.5
09:15 1033 30.5 862 25.45 -5.3 22.4 58 -12.4 9.7
09:20 1033 30.5 862 25.45 -5.2 22.7 58 -12.2 10.1
09:25 1033 30.5 862 25.45 -5.2 22.6 58 -12.3 9.9
09:30 1033 30.5 862 25.45 -5.1 22.7 57 -12.3 9.8
09:35 1033 30.5 862 25.45 -5.1 22.9 55 -12.8 9
09:40 1032 30.47 862 25.45 -4.8 23.4 57 -12.1 10.1
09:45 1033 30.5 862 25.45 -4.7 23.6 56 -12.3 9.9
09:50 1033 30.5 862 25.45 -4.5 24 56 -12 10.4
09:55 1033 30.5 862 25.45 -4.5 23.9 59 -11.5 11.4
10:00 1033 30.5 862 25.45 -5 23 57 -12.3 9.8
10:05 1033 30.5 862 25.45 -4.5 23.9 55 -12.3 9.8
10:10 1033 30.5 862 25.45 -4.3 24.3 53 -12.4 9.6
10:15 1033 30.5 862 25.45 -4 24.9 50 -12.8 8.9
10:20 1033 30.5 862 25.45 -3.7 25.4 49 -12.8 8.9
10:25 1033 30.5 862 25.45 -3.3 26 49 -12.6 9.4
10:30 1033 30.5 862 25.45 -3.3 26.1 48 -12.7 9.2
10:35 1033 30.5 862 25.45 -3 26.6 47 -12.9 8.8
10:40 1033 30.5 862 25.45 -2.7 27.1 48 -12.3 9.8
10:45 1033 30.5 862 25.45 -2.9 26.7 48 -12.6 9.4
10:50 1033 30.5 862 25.45 -2.4 27.6 46 -12.6 9.2
10:55 1033 30.5 863 25.48 -2.9 26.8 47 -12.8 9
11:00 1033 30.5 862 25.45 -1.9 28.6 45 -12.4 9.7
11:05 1033 30.5 863 25.48 -1.5 29.3 43 -12.5 9.5
11:10 1033 30.5 863 25.48 -1 30.2 42 -12.3 9.9
11:15 1033 30.5 863 25.48 -0.8 30.5 42 -12.2 10
11:20 1033 30.5 863 25.48 -1.4 29.4 46 -11.7 10.9
11:25 1033 30.5 863 25.48 -2.1 28.2 47 -12.1 10.3
11:30 1033 30.5 863 25.48 -1.9 28.7 44 -12.4 9.6
11:35 1033 30.5 863 25.48 -1.4 29.5 43 -12.4 9.6
11:40 1033 30.5 863 25.48 -1.3 29.7 44 -11.9 10.5
11:45 1033 30.5 863 25.48 -1.7 29 45 -12.1 10.3
11:50 1034 30.53 863 25.48 -1.4 29.5 43 -12.3 9.8
11:55 1034 30.53 863 25.48 -0.9 30.4 40 -12.8 9
12:00 1033 30.5 863 25.48 -0 31.9 40 -12.3 9.9
12:05 1033 30.5 863 25.48 -0.1 31.8 40 -12 10.3
12:10 1033 30.5 863 25.48 -0.1 31.8 41 -12 10.5
12:15 1033 30.5 863 25.48 -0.5 31.1 41 -12.2 10
12:20 1033 30.5 863 25.48 0.2 32.3 39 -12.3 9.9
12:25 1033 30.5 862 25.45 0.9 33.7 35 -12.7 9.1
12:30 1033 30.5 862 25.45 1.2 34.2 37 -11.8 10.8
12:35 1033 30.5 862 25.45 1 33.8 38 -11.8 10.8
12:40 1033 30.5 862 25.45 0.3 32.6 40 -11.8 10.7
12:45 1033 30.5 862 25.45 1 33.7 38 -11.9 10.5
12:50 1033 30.5 862 25.45 1.2 34.1 37 -11.9 10.6
12:55 1033 30.5 862 25.45 1 33.8 38 -11.7 11
13:00 1033 30.5 862 25.45 1.1 33.9 37 -11.9 10.5
13:05 1033 30.5 862 25.45 1.2 34.1 37 -12.1 10.3
13:10 1033 30.5 862 25.45 1.4 34.6 36 -12.1 10.2
13:15 1033 30.5 862 25.45 1.9 35.4 34 -12.5 9.5
13:20 1033 30.5 862 25.45 2.4 36.4 33 -12.3 9.8
13:25 1033 30.5 862 25.45 2.8 37.1 32 -12.2 10.1
13:30 1032 30.47 862 25.45 2.9 37.2 33 -11.9 10.6
13:35 1032 30.47 862 25.45 3 37.4 32 -12 10.4
13:40 1032 30.47 862 25.45 3 37.3 32 -12.1 10.2
13:45 1032 30.47 861 25.43 3.2 37.7 32 -12.2 10.1
13:50 1032 30.47 861 25.43 3.5 38.3 30 -12.4 9.6
13:55 1032 30.47 861 25.43 3.8 38.9 32 -11.4 11.4
14:00 1032 30.47 861 25.43 3.6 38.5 32 -11.6 11.1
14:05 1032 30.47 861 25.43 3.7 38.6 32 -11.5 11.3
14:10 1032 30.47 861 25.43 3.9 39.1 30 -12 10.4
14:15 1032 30.47 861 25.43 4.4 39.9 30 -11.7 11
14:20 1032 30.47 861 25.43 4.7 40.5 31 -11.1 12
14:25 1032 30.47 861 25.43 4.3 39.7 31 -11.4 11.4
14:30 1032 30.47 861 25.43 4.3 39.8 32 -11.1 12
14:35 1032 30.47 861 25.43 4.5 40.1 30 -11.6 11
14:40 1032 30.47 861 25.43 4.3 39.7 32 -11.1 11.9
14:45 1031 30.45 861 25.43 4.2 39.5 32 -11 12.3
14:50 1031 30.45 861 25.43 4.3 39.7 32 -11.2 11.8
14:55 1031 30.45 861 25.43 4.2 39.5 33 -10.7 12.7
15:00 1031 30.45 861 25.43 3.8 38.8 34 -10.8 12.6
15:05 1031 30.45 861 25.43 3.6 38.4 34 -11 12.2
15:10 1031 30.45 861 25.43 3.9 39 33 -11.1 12.1
15:15 1031 30.45 861 25.43 4.2 39.6 33 -10.7 12.7
15:20 1032 30.47 861 25.43 4.3 39.7 32 -11.2 11.8
15:25 1032 30.47 861 25.43 5.2 41.4 31 -10.5 13.2
15:30 1032 30.47 861 25.43 5.8 42.4 32 -9.6 14.8
15:35 1032 30.47 861 25.43 5 40.9 33 -10.1 13.8
15:40 1032 30.47 861 25.43 4.5 40 34 -10.2 13.6
15:45 1032 30.47 861 25.43 4.1 39.5 36 -9.7 14.5
15:50 1032 30.47 861 25.43 4.3 39.7 33 -10.5 13.1
15:55 1032 30.47 861 25.43 4.5 40.1 34 -10.2 13.6
16:00 1032 30.47 861 25.43 4.6 40.3 33 -10.5 13.1
16:05 1032 30.47 861 25.43 4.6 40.2 34 -10.1 13.8
16:10 1032 30.47 861 25.43 4.6 40.2 33 -10.2 13.6
16:15 1032 30.47 861 25.43 4.8 40.6 32 -10.7 12.8
16:20 1032 30.47 861 25.43 4.7 40.5 32 -10.5 13.2
16:25 1032 30.47 861 25.43 4.6 40.3 32 -10.8 12.6
16:30 1032 30.47 861 25.43 5 41 31 -10.9 12.3
16:35 1032 30.47 861 25.43 5.5 41.9 29 -11.3 11.6
16:40 1032 30.47 861 25.43 5.6 42.1 30 -10.8 12.6
16:45 1032 30.47 861 25.43 5.4 41.8 29 -11.2 11.8
16:50 1032 30.47 861 25.43 5.1 41.2 30 -11.1 12
16:55 1032 30.47 861 25.43 5.1 41.2 30 -11.2 11.8
17:00 1032 30.47 861 25.43 5.2 41.4 30 -11 12.2
17:05 1032 30.47 861 25.43 5.6 42.1 29 -11.3 11.7
17:10 1032 30.47 861 25.43 5.5 41.9 29 -11.3 11.7
17:15 1032 30.47 861 25.43 5.2 41.4 30 -11.1 12
17:20 1032 30.47 861 25.43 5.3 41.5 30 -11 12.2
17:25 1032 30.47 861 25.43 5.2 41.3 31 -10.8 12.5
17:30 1032 30.47 861 25.43 4.9 40.9 31 -10.9 12.3
17:35 1032 30.47 861 25.43 4.6 40.2 32 -10.7 12.7
17:40 1032 30.47 861 25.43 4.5 40 32 -10.7 12.8
17:45 1032 30.47 861 25.43 4.2 39.5 33 -10.7 12.8
17:50 1032 30.47 861 25.43 3.9 39.1 34 -10.5 13.1
17:55 1032 30.47 861 25.43 3.8 38.9 35 -10.2 13.6
18:00 1032 30.47 861 25.43 3.9 39 34 -10.7 12.7
18:05 1032 30.47 861 25.43 3.9 39 33 -11 12.2
18:10 1032 30.47 861 25.43 3.6 38.4 34 -10.7 12.7
18:15 1032 30.47 861 25.43 3.2 37.8 35 -10.8 12.5
18:20 1032 30.47 861 25.43 3 37.3 35 -10.9 12.4
18:25 1032 30.47 861 25.43 2.8 37.1 35 -11.3 11.7
18:30 1032 30.47 861 25.43 2.6 36.7 34 -11.8 10.8
18:35 1032 30.47 861 25.43 2.4 36.4 37 -10.9 12.3
18:40 1032 30.47 861 25.43 2.6 36.6 37 -10.7 12.8
18:45 1032 30.47 861 25.43 2.5 36.6 38 -10.4 13.2
18:50 1032 30.47 861 25.43 2.3 36.1 38 -10.5 13.1
18:55 1032 30.47 861 25.43 1.8 35.3 39 -10.8 12.6
19:00 1032 30.47 861 25.43 1.7 35.1 38 -11.3 11.7
19:05 1032 30.47 861 25.43 2.1 35.7 35 -11.7 10.9
19:10 1032 30.47 861 25.43 2.2 36 40 -9.9 14.2
19:15 1032 30.47 861 25.43 1.1 34 42 -10.4 13.3
19:20 1032 30.47 861 25.43 0.6 33 43 -10.5 13.1
19:25 1032 30.47 861 25.43 0.1 32.1 43 -11.2 11.9
19:30 1032 30.47 861 25.43 0.2 32.3 46 -10 13.9
19:35 1032 30.47 861 25.43 0.4 32.7 43 -10.8 12.5
19:40 1032 30.47 861 25.43 0.4 32.8 43 -10.6 12.9
19:45 1032 30.47 861 25.43 0.4 32.7 42 -11.2 11.9
19:50 1032 30.47 861 25.43 0.8 33.4 43 -10.5 13
19:55 1032 30.47 861 25.43 1 33.8 41 -10.7 12.7
20:00 1032 30.47 861 25.43 1.2 34.2 39 -11.1 12
20:05 1032 30.47 861 25.43 1.4 34.5 43 -10 14
20:10 1032 30.47 861 25.43 0.9 33.6 43 -10.4 13.4
20:15 1032 30.47 861 25.43 1.3 34.3 41 -10.6 12.9
20:20 1032 30.47 861 25.43 1.8 35.2 40 -10.5 13.1
20:25 1032 30.47 861 25.43 1.6 34.8 43 -9.9 14.3
20:30 1032 30.47 861 25.43 1.5 34.6 45 -9.3 15.3
20:35 1032 30.47 861 25.43 1.4 34.5 42 -10.1 13.8
20:40 1032 30.47 861 25.43 1.4 34.5 45 -9.4 15.2
20:45 1032 30.47 861 25.43 1.2 34.1 46 -9.2 15.5
20:50 1032 30.47 861 25.43 1.1 33.9 48 -8.8 16.1
20:55 1032 30.47 861 25.43 1.1 34 49 -8.5 16.6
21:00 1032 30.47 861 25.43 1 33.7 50 -8.4 16.9
21:05 1032 30.47 861 25.43 0.9 33.7 50 -8.5 16.8
21:10 1032 30.47 861 25.43 0.7 33.2 50 -8.7 16.3
21:15 1032 30.47 861 25.43 0.6 33.2 46 -9.8 14.3
21:20 1032 30.47 861 25.43 1 33.7 46 -9.5 14.9
21:25 1032 30.47 861 25.43 1 33.7 45 -9.7 14.5
21:30 1032 30.47 861 25.43 0.8 33.4 45 -9.9 14.2
21:35 1032 30.47 861 25.43 0.7 33.3 42 -10.7 12.8
21:40 1032 30.47 861 25.43 1.2 34.1 40 -11.1 12
21:45 1032 30.47 861 25.43 1.5 34.8 44 -9.4 15.1
21:50 1032 30.47 861 25.43 1.1 33.9 43 -10.1 13.8
21:55 1032 30.47 861 25.43 1.2 34.2 40 -11 12.2
22:00 1032 30.47 861 25.43 1.7 35.1 37 -11.6 11.1
22:05 1031 30.45 861 25.43 2.2 35.9 37 -11 12.3
22:10 1032 30.47 861 25.43 2 35.6 38 -11.1 12.1
22:15 1032 30.47 861 25.43 2.1 35.8 38 -10.7 12.8
22:20 1032 30.47 861 25.43 1.9 35.4 39 -10.6 13
22:25 1031 30.45 861 25.43 1.9 35.4 40 -10.4 13.2
22:30 1032 30.47 861 25.43 1.6 35 41 -10.1 13.8
22:35 1032 30.47 861 25.43 1.2 34.2 44 -9.8 14.3
22:40 1031 30.45 861 25.43 0.8 33.5 43 -10.5 13.2
22:45 1031 30.45 861 25.43 0.9 33.7 45 -9.8 14.3
22:50 1031 30.45 861 25.43 0.8 33.4 47 -9.4 15.1
22:55 1031 30.45 861 25.43 0.4 32.7 48 -9.4 15.1
23:00 1031 30.45 861 25.43 0.4 32.7 44 -10.6 13
23:05 1031 30.45 860 25.4 1 33.8 43 -10.3 13.5
23:10 1031 30.45 860 25.4 1.2 34.2 42 -10.5 13.2
23:15 1031 30.45 860 25.4 1.2 34.2 43 -10.2 13.7
23:20 1031 30.45 861 25.43 0.6 33 48 -9.3 15.3
23:25 1031 30.45 861 25.43 0.4 32.7 48 -9.5 14.9
23:30 1031 30.45 861 25.43 0.2 32.3 48 -9.7 14.5
23:35 1031 30.45 861 25.43 0.2 32.4 47 -9.8 14.3
23:40 1031 30.45 861 25.43 0.7 33.2 43 -10.6 13
23:45 1031 30.45 861 25.43 0.7 33.3 43 -10.6 13
23:50 1032 30.47 861 25.43 0.9 33.5 42 -10.7 12.8
23:55 1032 30.47 861 25.43 0.7 33.3 43 -10.3 13.4
24:00 1032 30.47 861 25.43 0.6 33.1 45 -10 14